createdAt,value
2018-05-14T00:00:15.722Z,6.93
2018-05-14T00:02:43.252Z,7.95
2018-05-14T00:05:11.159Z,7.60
2018-05-14T00:07:38.689Z,6.32
2018-05-14T00:10:06.205Z,5.95
2018-05-14T00:12:34.119Z,8.35
2018-05-14T00:15:01.633Z,6.62
2018-05-14T00:17:29.628Z,8.82
2018-05-14T00:19:57.107Z,6.47
2018-05-14T00:22:24.685Z,6.90
2018-05-14T00:24:52.217Z,8.25
2018-05-14T00:27:19.752Z,7.00
2018-05-14T00:29:47.300Z,8.13
2018-05-14T00:32:14.969Z,8.57
2018-05-14T00:34:42.631Z,6.62
2018-05-14T00:37:10.126Z,9.07
2018-05-14T00:39:37.680Z,6.75
2018-05-14T00:42:05.205Z,6.57
2018-05-14T00:44:32.755Z,5.87
2018-05-14T00:47:00.257Z,7.50
2018-05-14T00:49:27.831Z,5.85
2018-05-14T00:51:55.723Z,8.68
2018-05-14T00:54:23.245Z,6.37
2018-05-14T00:56:50.809Z,8.23
2018-05-14T00:59:18.731Z,8.32
2018-05-14T01:01:46.262Z,6.78
2018-05-14T01:04:13.924Z,6.72
2018-05-14T01:06:41.617Z,9.70
2018-05-14T01:09:09.109Z,7.15
2018-05-14T01:11:37.046Z,8.00
2018-05-14T01:14:04.798Z,5.87
2018-05-14T01:16:32.338Z,6.63
2018-05-14T01:18:59.961Z,9.13
2018-05-14T01:21:27.517Z,5.93
2018-05-14T01:23:55.038Z,7.80
2018-05-14T01:26:22.599Z,7.35
2018-05-14T01:28:50.101Z,6.37
2018-05-14T01:31:17.610Z,8.48
2018-05-14T01:33:45.541Z,8.00
2018-05-14T01:36:13.053Z,8.23
2018-05-14T01:38:40.599Z,8.15
2018-05-14T01:41:08.519Z,12.68
2018-05-14T01:43:36.065Z,14.63
2018-05-14T01:46:03.585Z,12.82
2018-05-14T01:48:31.580Z,15.73
2018-05-14T01:50:59.240Z,12.33
2018-05-14T01:53:26.758Z,13.40
2018-05-14T01:55:54.696Z,15.90
2018-05-14T01:58:22.202Z,12.52
2018-05-14T02:00:49.733Z,17.27
2018-05-14T02:03:17.633Z,14.15
2018-05-14T02:05:45.189Z,13.62
2018-05-14T02:08:12.694Z,16.20
2018-05-14T02:10:40.241Z,12.60
2018-05-14T02:13:07.760Z,15.73
2018-05-14T02:15:35.293Z,13.20
2018-05-14T02:18:02.806Z,14.95
2018-05-14T02:20:30.340Z,13.38
2018-05-14T02:22:57.997Z,12.25
2018-05-14T02:25:25.641Z,15.57
2018-05-14T02:27:53.162Z,13.05
2018-05-14T02:30:21.062Z,16.20
2018-05-14T02:32:48.604Z,14.47
2018-05-14T02:35:16.173Z,14.55
2018-05-14T02:37:43.736Z,16.42
2018-05-14T02:40:11.244Z,17.12
2018-05-14T02:42:39.199Z,13.73
2018-05-14T02:45:06.901Z,11.55
2018-05-14T02:47:34.457Z,12.27
2018-05-14T02:50:01.994Z,12.77
2018-05-14T02:52:29.538Z,13.23
2018-05-14T02:54:57.444Z,11.57
2018-05-14T02:57:24.998Z,11.63
2018-05-14T02:59:52.537Z,11.02
2018-05-14T03:02:20.116Z,13.77
2018-05-14T03:04:47.629Z,11.93
2018-05-14T03:07:15.583Z,11.95
2018-05-14T03:09:43.300Z,11.15
2018-05-14T03:12:10.841Z,10.75
2018-05-14T03:14:38.409Z,13.02
2018-05-14T03:17:05.949Z,11.80
2018-05-14T03:19:33.453Z,17.67
2018-05-14T03:22:01.017Z,13.32
2018-05-14T03:24:28.527Z,15.63
2018-05-14T03:26:56.069Z,16.45
2018-05-14T03:29:23.732Z,13.57
2018-05-14T03:31:51.257Z,16.20
2018-05-14T03:34:19.212Z,15.90
2018-05-14T03:36:46.818Z,13.65
2018-05-14T03:39:14.402Z,17.12
2018-05-14T03:41:41.905Z,17.83
2018-05-14T03:44:09.845Z,18.23
2018-05-14T03:46:37.375Z,17.45
2018-05-14T03:49:04.913Z,16.80
2018-05-14T03:51:32.469Z,16.45
2018-05-14T03:54:00.009Z,17.10
2018-05-14T03:56:27.531Z,15.32
2018-05-14T03:59:06.873Z,16.17
2018-05-14T04:01:46.166Z,16.45
2018-05-14T04:04:25.378Z,17.35
2018-05-14T04:06:52.905Z,17.33
2018-05-14T04:09:21.352Z,15.80
2018-05-14T04:11:48.965Z,17.80
2018-05-14T04:14:16.505Z,19.48
2018-05-14T04:16:44.023Z,20.30
2018-05-14T04:19:11.577Z,18.02
2018-05-14T04:21:39.105Z,17.95
2018-05-14T04:24:06.647Z,17.95
2018-05-14T04:26:34.190Z,18.27
2018-05-14T04:29:01.758Z,18.37
2018-05-14T04:31:29.314Z,21.08
2018-05-14T04:33:56.821Z,21.45
2018-05-14T04:36:24.360Z,20.98
2018-05-14T04:38:51.875Z,23.67
2018-05-14T04:41:19.544Z,21.92
2018-05-14T04:43:47.069Z,22.90
2018-05-14T04:46:14.629Z,21.50
2018-05-14T04:48:42.226Z,22.80
2018-05-14T04:51:09.745Z,23.05
2018-05-14T04:53:37.300Z,24.75
2018-05-14T04:56:04.809Z,26.67
2018-05-14T04:58:32.348Z,23.75
2018-05-14T05:00:59.860Z,29.12
2018-05-14T05:03:27.409Z,26.08
2018-05-14T05:05:55.480Z,22.35
2018-05-14T05:08:23.478Z,23.85
2018-05-14T05:10:50.983Z,25.70
2018-05-14T05:13:18.543Z,22.50
2018-05-14T05:15:46.083Z,27.05
2018-05-14T05:18:13.617Z,25.02
2018-05-14T05:20:41.137Z,23.15
2018-05-14T05:23:08.694Z,25.25
2018-05-14T05:25:36.216Z,23.77
2018-05-14T05:28:03.778Z,22.92
2018-05-14T05:30:31.285Z,27.05
2018-05-14T05:32:58.796Z,22.37
2018-05-14T05:35:26.497Z,22.13
2018-05-14T05:37:54.019Z,21.30
2018-05-14T05:40:21.580Z,24.65
2018-05-14T05:42:49.083Z,24.37
2018-05-14T05:45:16.640Z,22.30
2018-05-14T05:47:44.179Z,25.05
2018-05-14T05:50:11.740Z,28.65
2018-05-14T05:52:39.249Z,25.70
2018-05-14T05:55:06.805Z,30.65
2018-05-14T05:57:34.712Z,25.45
2018-05-14T06:00:02.264Z,25.83
2018-05-14T06:02:29.794Z,26.02
2018-05-14T06:04:57.479Z,24.08
2018-05-14T06:07:25.042Z,23.67
2018-05-14T06:09:52.544Z,25.98
2018-05-14T06:12:20.101Z,21.92
2018-05-14T06:14:47.626Z,26.30
2018-05-14T06:17:15.177Z,24.30
2018-05-14T06:19:42.711Z,20.85
2018-05-14T06:22:10.260Z,22.45
2018-05-14T06:24:37.790Z,22.52
2018-05-14T06:27:05.325Z,20.52
2018-05-14T06:29:32.839Z,18.30
2018-05-14T06:32:00.381Z,18.73
2018-05-14T06:34:27.901Z,18.37
2018-05-14T06:36:55.905Z,19.17
2018-05-14T06:39:23.419Z,16.90
2018-05-14T06:41:50.989Z,21.55
2018-05-14T06:44:18.794Z,16.92
2018-05-14T06:46:46.216Z,19.87
2018-05-14T06:49:14.234Z,17.80
2018-05-14T06:51:41.869Z,17.52
2018-05-14T06:54:09.438Z,15.90
2018-05-14T06:56:36.997Z,17.58
2018-05-14T06:59:04.561Z,16.05
2018-05-14T07:01:32.077Z,15.80
2018-05-14T07:03:59.642Z,15.25
2018-05-14T07:06:27.170Z,15.63
2018-05-14T07:08:54.716Z,16.83
2018-05-14T07:11:22.217Z,16.33
2018-05-14T07:13:49.764Z,14.98
2018-05-14T07:16:17.438Z,13.18
2018-05-14T07:18:45.102Z,13.80
2018-05-14T07:21:12.623Z,15.07
2018-05-14T07:23:40.539Z,12.68
2018-05-14T07:26:08.072Z,11.35
2018-05-14T07:28:35.597Z,14.07
2018-05-14T07:31:03.539Z,21.08
2018-05-14T07:33:31.061Z,11.50
2018-05-14T07:35:58.633Z,12.73
2018-05-14T07:38:26.160Z,12.02
2018-05-14T07:40:53.809Z,12.40
2018-05-14T07:43:21.313Z,11.05
2018-05-14T07:45:48.874Z,11.50
2018-05-14T07:48:16.385Z,12.65
2018-05-14T07:50:43.938Z,12.63
2018-05-14T07:53:11.453Z,11.63
2018-05-14T07:55:39.005Z,10.52
2018-05-14T07:58:06.565Z,10.82
2018-05-14T08:00:34.365Z,11.73
2018-05-14T08:03:01.889Z,11.18
2018-05-14T08:05:29.405Z,10.35
2018-05-14T08:07:56.946Z,11.63
2018-05-14T08:10:24.465Z,11.50
2018-05-14T08:12:52.014Z,10.23
2018-05-14T08:15:19.933Z,10.05
2018-05-14T08:17:47.499Z,12.00
2018-05-14T08:20:15.024Z,11.25
2018-05-14T08:22:42.630Z,11.75
2018-05-14T08:25:10.156Z,11.63
2018-05-14T08:27:37.900Z,10.50
2018-05-14T08:30:05.456Z,13.60
2018-05-14T08:32:33.007Z,12.55
2018-05-14T08:35:00.669Z,8.40
2018-05-14T08:37:28.329Z,11.80
2018-05-14T08:39:55.748Z,11.45
2018-05-14T08:42:23.370Z,11.38
2018-05-14T08:44:51.224Z,9.88
2018-05-14T08:47:18.736Z,10.00
2018-05-14T08:49:46.429Z,10.80
2018-05-14T08:52:13.944Z,11.23
2018-05-14T08:54:41.517Z,12.50
2018-05-14T08:57:09.124Z,10.77
2018-05-14T08:59:36.678Z,12.23
2018-05-14T09:02:04.177Z,11.02
2018-05-14T09:04:31.729Z,9.70
2018-05-14T09:06:59.257Z,13.35
2018-05-14T09:09:26.801Z,10.18
2018-05-14T09:11:54.437Z,11.93
2018-05-14T09:14:21.999Z,16.58
2018-05-14T09:16:49.517Z,10.32
2018-05-14T09:19:17.144Z,11.00
2018-05-14T09:21:44.585Z,10.70
2018-05-14T09:24:12.180Z,16.62
2018-05-14T09:26:39.660Z,10.45
2018-05-14T09:29:07.179Z,11.30
2018-05-14T09:31:35.119Z,9.98
2018-05-14T09:34:02.857Z,9.35
2018-05-14T09:36:30.408Z,13.15
2018-05-14T09:38:57.935Z,11.63
2018-05-14T09:41:25.472Z,10.30
2018-05-14T09:43:53.373Z,11.10
2018-05-14T09:46:21.034Z,11.25
2018-05-14T09:48:48.589Z,11.55
2018-05-14T09:51:16.144Z,11.45
2018-05-14T09:53:43.669Z,13.80
2018-05-14T09:56:11.199Z,11.55
2018-05-14T09:58:38.716Z,11.43
2018-05-14T10:01:06.281Z,10.85
2018-05-14T10:03:33.857Z,14.30
2018-05-14T10:06:01.391Z,8.25
2018-05-14T10:08:28.924Z,8.52
2018-05-14T10:10:56.513Z,14.95
2018-05-14T10:13:24.066Z,12.77
2018-05-14T10:15:51.569Z,9.70
2018-05-14T10:18:19.121Z,11.75
2018-05-14T10:20:47.027Z,11.40
2018-05-14T10:23:14.588Z,12.07
2018-05-14T10:25:42.088Z,12.60
2018-05-14T10:28:09.640Z,14.05
2018-05-14T10:30:37.162Z,12.55
2018-05-14T10:33:04.693Z,15.05
2018-05-14T10:35:32.210Z,14.23
2018-05-14T10:37:59.752Z,14.10
2018-05-14T10:40:27.376Z,15.48
2018-05-14T10:42:55.036Z,15.32
2018-05-14T10:45:22.624Z,15.55
2018-05-14T10:47:50.128Z,13.50
2018-05-14T10:50:17.669Z,14.40
2018-05-14T10:52:46.106Z,12.80
2018-05-14T10:55:13.751Z,11.32
2018-05-14T10:57:41.265Z,13.70
2018-05-14T11:00:09.203Z,14.30
2018-05-14T11:02:36.743Z,13.43
2018-05-14T11:05:04.382Z,13.20
2018-05-14T11:07:31.897Z,16.52
2018-05-14T11:09:59.847Z,10.95
2018-05-14T11:12:27.362Z,15.93
2018-05-14T11:14:54.945Z,15.40
2018-05-14T11:17:22.666Z,15.32
2018-05-14T11:19:50.178Z,15.35
2018-05-14T11:22:18.141Z,14.30
2018-05-14T11:24:45.664Z,15.15
2018-05-14T11:27:13.212Z,14.70
2018-05-14T11:29:40.725Z,12.60
2018-05-14T11:32:08.430Z,18.30
2018-05-14T11:34:35.949Z,16.85
2018-05-14T11:37:03.524Z,13.73
2018-05-14T11:39:31.057Z,21.73
2018-05-14T11:41:58.617Z,17.08
2018-05-14T11:44:26.138Z,15.10
2018-05-14T11:46:53.962Z,17.37
2018-05-14T11:49:21.625Z,18.25
2018-05-14T11:51:49.185Z,16.45
2018-05-14T11:54:16.730Z,20.73
2018-05-14T11:56:44.339Z,18.33
2018-05-14T11:59:12.041Z,17.90
2018-05-14T12:01:39.567Z,16.75
2018-05-14T12:04:07.569Z,21.37
2018-05-14T12:06:35.087Z,21.25
2018-05-14T12:09:03.020Z,18.87
2018-05-14T12:11:30.527Z,22.90
2018-05-14T12:13:58.084Z,20.75
2018-05-14T12:16:25.621Z,23.55
2018-05-14T12:18:53.156Z,24.70
2018-05-14T12:21:20.777Z,21.52
2018-05-14T12:23:48.473Z,21.42
2018-05-14T12:26:15.985Z,23.23
2018-05-14T12:28:43.541Z,24.90
2018-05-14T12:31:11.274Z,24.48
2018-05-14T12:33:39.248Z,24.15
2018-05-14T12:36:06.790Z,23.50
2018-05-14T12:38:34.702Z,21.23
2018-05-14T12:41:02.426Z,21.60
2018-05-14T12:43:30.117Z,22.02
2018-05-14T12:45:57.854Z,19.00
2018-05-14T12:48:25.372Z,22.42
2018-05-14T12:50:52.981Z,23.05
2018-05-14T12:53:20.489Z,19.42
2018-05-14T12:55:48.030Z,20.50
2018-05-14T12:58:15.554Z,20.40
2018-05-14T13:00:43.119Z,23.95
2018-05-14T13:03:10.671Z,21.55
2018-05-14T13:05:38.189Z,23.80
2018-05-14T13:08:06.505Z,21.35
2018-05-14T13:10:34.037Z,22.73
2018-05-14T13:13:01.618Z,23.90
2018-05-14T13:15:29.128Z,21.95
2018-05-14T13:17:56.685Z,27.85
2018-05-14T13:20:24.742Z,23.52
2018-05-14T13:22:52.690Z,20.48
2018-05-14T13:25:20.217Z,23.02
2018-05-14T13:27:47.778Z,23.38
2018-05-14T13:30:15.301Z,25.05
2018-05-14T13:32:42.855Z,25.45
2018-05-14T13:35:10.390Z,27.25
2018-05-14T13:37:38.004Z,23.83
2018-05-14T13:40:05.529Z,28.60
2018-05-14T13:42:33.088Z,25.45
2018-05-14T13:45:00.751Z,24.70
2018-05-14T13:47:28.388Z,27.10
2018-05-14T13:49:56.340Z,22.35
2018-05-14T13:52:24.253Z,18.75
2018-05-14T13:54:51.794Z,22.77
2018-05-14T13:57:19.385Z,19.42
2018-05-14T13:59:47.238Z,18.40
2018-05-14T14:02:14.761Z,15.32
2018-05-14T14:04:42.309Z,18.55
2018-05-14T14:07:09.828Z,20.88
2018-05-14T14:09:37.381Z,18.65
2018-05-14T14:12:05.003Z,18.62
2018-05-14T14:14:32.569Z,16.90
2018-05-14T14:17:00.088Z,18.12
2018-05-14T14:19:27.674Z,18.77
2018-05-14T14:21:55.239Z,15.70
2018-05-14T14:24:22.818Z,12.85
2018-05-14T14:26:50.370Z,14.20
2018-05-14T14:29:17.901Z,8.38
2018-05-14T14:31:45.580Z,4.87
2018-05-14T14:34:13.060Z,4.87
2018-05-14T14:36:40.671Z,2.70
2018-05-14T14:39:08.204Z,3.12
2018-05-14T14:41:35.744Z,1.65
2018-05-14T14:44:03.440Z,3.42
2018-05-14T14:46:31.145Z,4.68
2018-05-14T14:48:58.560Z,2.45
2018-05-14T14:51:26.114Z,1.25
2018-05-14T14:53:53.638Z,1.42
2018-05-14T14:56:21.141Z,1.75
2018-05-14T14:58:48.682Z,2.87
2018-05-14T15:01:16.181Z,2.45
2018-05-14T15:03:43.749Z,1.50
2018-05-14T15:06:11.653Z,1.77
2018-05-14T15:08:39.206Z,2.12
2018-05-14T15:11:06.728Z,1.45
2018-05-14T15:13:34.716Z,2.95
2018-05-14T15:16:02.229Z,2.22
2018-05-14T15:18:29.851Z,3.97
2018-05-14T15:20:57.511Z,14.98
2018-05-14T15:23:25.156Z,13.10
2018-05-14T15:25:52.708Z,3.78
2018-05-14T15:28:20.272Z,4.47
2018-05-14T15:30:48.208Z,4.07
2018-05-14T15:33:16.104Z,6.32
2018-05-14T15:35:43.638Z,8.90
2018-05-14T15:38:11.153Z,20.98
2018-05-14T15:40:38.777Z,9.75
2018-05-14T15:43:06.273Z,9.18
2018-05-14T15:45:33.837Z,6.35
2018-05-14T15:48:01.794Z,7.50
2018-05-14T15:50:29.337Z,9.30
2018-05-14T15:52:56.861Z,12.60
2018-05-14T15:55:24.407Z,8.55
2018-05-14T15:57:51.909Z,9.52
2018-05-14T16:00:19.464Z,5.93
2018-05-14T16:02:46.960Z,6.78
2018-05-14T16:05:14.506Z,10.75
2018-05-14T16:07:42.025Z,9.73
2018-05-14T16:10:09.564Z,7.12
2018-05-14T16:12:37.080Z,5.85
2018-05-14T16:15:04.648Z,4.20
2018-05-14T16:17:32.153Z,7.53
2018-05-14T16:19:59.675Z,5.80
2018-05-14T16:22:27.214Z,4.32
2018-05-14T16:24:55.133Z,2.40
2018-05-14T16:27:22.686Z,2.08
2018-05-14T16:29:50.310Z,2.85
2018-05-14T16:32:17.863Z,2.90
2018-05-14T16:34:45.451Z,4.47
2018-05-14T16:37:12.931Z,5.40
2018-05-14T16:39:40.544Z,2.00
2018-05-14T16:42:08.204Z,2.50
2018-05-14T16:44:35.711Z,3.12
2018-05-14T16:47:03.648Z,4.10
2018-05-14T16:49:31.157Z,2.25
2018-05-14T16:51:58.824Z,1.95
2018-05-14T16:54:26.329Z,3.60
2018-05-14T16:56:53.840Z,2.00
2018-05-14T16:59:21.375Z,2.10
2018-05-14T17:01:48.884Z,2.70
2018-05-14T17:04:16.416Z,2.33
2018-05-14T17:06:43.939Z,1.40
2018-05-14T17:09:11.481Z,1.62
2018-05-14T17:11:38.987Z,2.33
2018-05-14T17:14:06.536Z,1.52
2018-05-14T17:16:34.191Z,3.10
2018-05-14T17:19:01.852Z,1.58
2018-05-14T17:21:29.363Z,1.90
2018-05-14T17:23:57.296Z,2.28
2018-05-14T17:26:24.879Z,4.97
2018-05-14T17:28:52.399Z,1.20
2018-05-14T17:31:19.912Z,1.87
2018-05-14T17:33:47.590Z,2.83
2018-05-14T17:36:15.107Z,2.05
2018-05-14T17:38:43.201Z,2.22
2018-05-14T17:41:10.644Z,2.95
2018-05-14T17:43:38.545Z,1.52
2018-05-14T17:46:06.119Z,3.83
2018-05-14T17:48:33.616Z,2.47
2018-05-14T17:51:01.554Z,3.17
2018-05-14T17:53:29.081Z,2.35
2018-05-14T17:55:56.740Z,2.92
2018-05-14T17:58:24.261Z,3.70
2018-05-14T18:00:51.793Z,4.85
2018-05-14T18:03:19.311Z,3.20
2018-05-14T18:05:46.867Z,4.28
2018-05-14T18:08:14.364Z,2.53
2018-05-14T18:10:41.906Z,2.15
2018-05-14T18:13:09.421Z,2.37
2018-05-14T18:15:36.917Z,3.90
2018-05-14T18:18:04.511Z,3.03
2018-05-14T18:20:32.396Z,2.53
2018-05-14T18:22:59.952Z,3.72
2018-05-14T18:25:33.097Z,3.00
2018-05-14T18:28:01.435Z,3.17
2018-05-14T18:30:28.952Z,2.85
2018-05-14T18:33:02.428Z,5.57
2018-05-14T18:35:36.049Z,4.93
2018-05-14T18:38:03.684Z,3.40
2018-05-14T18:40:31.209Z,4.28
2018-05-14T18:42:58.850Z,3.97
2018-05-14T18:45:26.378Z,4.28
2018-05-14T18:47:53.922Z,3.37
2018-05-14T18:50:21.475Z,3.12
2018-05-14T18:52:49.561Z,3.95
2018-05-14T18:55:17.084Z,3.50
2018-05-14T18:57:44.611Z,3.97
2018-05-14T19:00:12.169Z,3.53
2018-05-14T19:02:39.700Z,4.35
2018-05-14T19:05:07.253Z,4.10
2018-05-14T19:07:34.817Z,6.75
2018-05-14T19:10:02.351Z,6.12
2018-05-14T19:12:29.917Z,3.90
2018-05-14T19:15:03.097Z,4.78
2018-05-14T19:17:45.521Z,4.15
2018-05-14T19:20:13.056Z,4.93
2018-05-14T19:22:46.221Z,4.80
2018-05-14T19:25:14.157Z,6.80
2018-05-14T19:27:41.678Z,6.60
2018-05-14T19:30:09.234Z,4.60
2018-05-14T19:32:36.737Z,9.20
2018-05-14T19:35:09.841Z,5.32
2018-05-14T19:37:37.854Z,7.03
2018-05-14T19:40:11.112Z,7.37
2018-05-14T19:42:38.631Z,9.35
2018-05-14T19:45:06.227Z,12.32
2018-05-14T19:47:33.748Z,12.20
2018-05-14T19:50:01.270Z,11.07
2018-05-14T19:52:28.813Z,11.52
2018-05-14T19:54:56.366Z,10.23
2018-05-14T19:57:23.919Z,12.98
2018-05-14T19:59:52.339Z,14.95
2018-05-14T20:02:19.873Z,12.00
2018-05-14T20:04:47.381Z,13.77
2018-05-14T20:07:15.090Z,12.23
2018-05-14T20:09:42.603Z,16.60
2018-05-14T20:12:10.160Z,13.13
2018-05-14T20:14:37.669Z,12.80
2018-05-14T20:17:05.197Z,15.10
2018-05-14T20:19:32.721Z,14.75
2018-05-14T20:22:00.265Z,15.75
2018-05-14T20:24:28.181Z,14.23
2018-05-14T20:26:55.829Z,17.25
2018-05-14T20:29:23.345Z,14.55
2018-05-14T20:31:50.850Z,15.95
2018-05-14T20:34:18.402Z,14.63
2018-05-14T20:36:45.925Z,15.48
2018-05-14T20:39:13.481Z,14.93
2018-05-14T20:41:41.000Z,12.93
2018-05-14T20:44:08.539Z,12.98
2018-05-14T20:46:36.057Z,17.00
2018-05-14T20:49:03.626Z,19.50
2018-05-14T20:51:31.144Z,14.00
2018-05-14T20:53:59.093Z,15.05
2018-05-14T20:56:26.618Z,14.68
2018-05-14T20:58:54.173Z,17.83
2018-05-14T21:01:21.705Z,18.60
2018-05-14T21:03:49.281Z,14.73
2018-05-14T21:06:16.792Z,14.15
2018-05-14T21:08:44.342Z,14.95
2018-05-14T21:11:11.840Z,14.43
2018-05-14T21:13:39.405Z,15.07
2018-05-14T21:16:06.925Z,15.00
2018-05-14T21:18:34.829Z,18.25
2018-05-14T21:21:02.357Z,16.42
2018-05-14T21:23:29.868Z,14.07
2018-05-14T21:25:57.480Z,15.63
2018-05-14T21:28:24.985Z,14.45
2018-05-14T21:30:52.544Z,17.15
2018-05-14T21:33:20.454Z,15.20
2018-05-14T21:35:48.118Z,17.80
2018-05-14T21:38:15.628Z,16.08
2018-05-14T21:40:43.272Z,16.10
2018-05-14T21:43:10.789Z,17.62
2018-05-14T21:45:38.344Z,16.35
2018-05-14T21:48:06.004Z,16.58
2018-05-14T21:50:33.535Z,15.65
2018-05-14T21:53:01.435Z,15.55
2018-05-14T21:55:28.961Z,16.80
2018-05-14T21:57:56.497Z,13.75
2018-05-14T22:00:24.508Z,16.17
2018-05-14T22:02:52.058Z,14.15
2018-05-14T22:05:19.583Z,12.65
2018-05-14T22:07:47.138Z,14.75
2018-05-14T22:10:15.034Z,13.70
2018-05-14T22:12:42.569Z,15.50
2018-05-14T22:15:10.097Z,13.85
2018-05-14T22:17:37.694Z,13.82
2018-05-14T22:20:05.217Z,13.80
2018-05-14T22:22:32.734Z,14.45
2018-05-14T22:25:00.291Z,16.23
2018-05-14T22:27:27.935Z,12.13
2018-05-14T22:29:55.596Z,10.13
2018-05-14T22:32:23.109Z,11.20
2018-05-14T22:34:51.061Z,10.15
2018-05-14T22:37:18.597Z,10.00
2018-05-14T22:39:46.153Z,10.63
2018-05-14T22:42:13.669Z,13.82
2018-05-14T22:44:41.215Z,8.95
2018-05-14T22:47:08.728Z,9.25
2018-05-14T22:49:36.261Z,8.05
2018-05-14T22:52:03.770Z,8.25
2018-05-14T22:54:41.426Z,9.00
2018-05-14T22:57:08.952Z,10.60
2018-05-14T22:59:36.510Z,11.70
2018-05-14T23:02:04.033Z,7.32
2018-05-14T23:04:31.994Z,8.93
2018-05-14T23:06:59.588Z,8.10
2018-05-14T23:09:27.245Z,8.68
2018-05-14T23:11:54.784Z,9.00
2018-05-14T23:14:22.294Z,8.53
2018-05-14T23:16:49.840Z,8.27
2018-05-14T23:19:17.353Z,13.23
2018-05-14T23:21:44.893Z,9.27
2018-05-14T23:24:12.808Z,10.23
2018-05-14T23:26:40.341Z,8.70
2018-05-14T23:29:07.860Z,8.67
2018-05-14T23:31:35.796Z,10.43
2018-05-14T23:34:03.297Z,10.00
2018-05-14T23:36:30.847Z,11.27
2018-05-14T23:38:58.755Z,9.90
2018-05-14T23:41:26.305Z,10.43
2018-05-14T23:43:53.823Z,7.95
2018-05-14T23:46:21.782Z,11.20
2018-05-14T23:48:49.292Z,12.98
2018-05-14T23:51:16.827Z,10.23
2018-05-14T23:53:44.445Z,8.70
2018-05-14T23:56:12.362Z,9.00
2018-05-14T23:58:39.921Z,10.93
